Time;durP1;ratioP1;P1;durP2;ratioP2;P2;SDS_P1;SDS_P2;PMS_P1;PMS_P2;Temp;Humidity;BMP_temperature;BMP_pressure;BME280_temperature;BME280_humidity;BME280_pressure;Samples;Min_cycle;Max_cycle;Signal;HPM_P1;HPM_P2
2022/01/25 00:08:20;;;;;;;52.17;33.83;;;;;;;;;;4990268;28;20218;-73
2022/01/25 00:08:24;;;;;;;51.03;33.30;;;;;;;;;;4963016;28;20295;-72
2022/01/25 00:31:10;;;;;;;54.43;34.57;;;;;;;;;;4991878;28;20229;-72
2022/01/25 00:33:37;;;;;;;53.13;33.57;;;;;;;;;;4964946;28;20328;-70
2022/01/25 00:36:06;;;;;;;55.47;35.70;;;;;;;;;;4977306;28;20231;-71
2022/01/25 00:38:34;;;;;;;55.60;34.73;;;;;;;;;;4961859;28;20595;-72
2022/01/25 00:41:00;;;;;;;56.13;35.73;;;;;;;;;;4994364;28;20287;-71
2022/01/25 00:43:28;;;;;;;57.60;36.30;;;;;;;;;;4976637;28;20225;-72
2022/01/25 00:46:00;;;;;;;53.50;35.10;;;;;;;;;;4978427;28;20251;-72
2022/01/25 00:54:01;;;;;;;54.30;34.63;;;;;;;;;;4974158;28;20244;-73
2022/01/25 00:56:33;;;;;;;49.70;33.20;;;;;;;;;;4961054;28;20225;-72
2022/01/25 00:59:02;;;;;;;53.17;33.90;;;;;;;;;;4959486;28;20225;-73
2022/01/25 01:01:28;;;;;;;55.27;33.73;;;;;;;;;;4961606;28;20225;-72
2022/01/25 01:03:54;;;;;;;51.37;34.90;;;;;;;;;;4977990;28;20283;-72
2022/01/25 01:06:23;;;;;;;54.57;35.00;;;;;;;;;;4994080;28;20272;-73
2022/01/25 01:08:48;;;;;;;53.20;34.53;;;;;;;;;;4995040;28;20328;-72
2022/01/25 01:11:22;;;;;;;50.70;34.53;;;;;;;;;;4977763;28;20708;-72
2022/01/25 01:14:00;;;;;;;56.57;36.57;;;;;;;;;;4959558;28;20257;-72
2022/01/25 01:30:55;;;;;;;57.87;36.40;;;;;;;;;;4977861;28;20217;-72
2022/01/25 01:43:28;;;;;;;51.97;34.53;;;;;;;;;;4977870;28;20753;-71
2022/01/25 01:46:06;;;;;;;55.40;35.07;;;;;;;;;;4995733;28;20225;-72
2022/01/25 01:48:39;;;;;;;57.87;34.90;;;;;;;;;;4964880;28;20217;-73
2022/01/25 01:51:13;;;;;;;56.07;34.93;;;;;;;;;;4965751;28;20230;-72
2022/01/25 01:53:43;;;;;;;54.60;35.03;;;;;;;;;;4958231;28;20284;-72
2022/01/25 01:56:09;;;;;;;54.60;35.60;;;;;;;;;;4984912;28;20279;-72
2022/01/25 01:58:35;;;;;;;57.20;34.67;;;;;;;;;;4977097;28;20296;-72
2022/01/25 02:01:05;;;;;;;54.03;35.37;;;;;;;;;;4972789;28;20300;-73
2022/01/25 02:03:30;;;;;;;56.03;36.07;;;;;;;;;;4957688;28;20321;-72
2022/01/25 02:06:05;;;;;;;54.50;34.30;;;;;;;;;;4964281;28;20256;-72
2022/01/25 02:08:34;;;;;;;52.17;34.27;;;;;;;;;;4992091;28;20221;-72
2022/01/25 02:11:00;;;;;;;56.77;34.43;;;;;;;;;;4974348;28;20214;-73
2022/01/25 02:13:28;;;;;;;56.17;35.20;;;;;;;;;;4972777;28;20249;-72
2022/01/25 02:15:56;;;;;;;56.70;33.90;;;;;;;;;;4962243;28;20202;-72
2022/01/25 02:23:51;;;;;;;56.43;33.90;;;;;;;;;;4979233;28;20229;-72
2022/01/25 02:26:19;;;;;;;55.10;33.83;;;;;;;;;;4985630;28;20225;-72
2022/01/25 02:28:47;;;;;;;56.50;34.40;;;;;;;;;;4972636;28;20226;-72
2022/01/25 02:31:18;;;;;;;56.53;34.03;;;;;;;;;;4979654;28;20354;-73
2022/01/25 02:33:46;;;;;;;55.47;34.80;;;;;;;;;;4959976;28;20233;-73
2022/01/25 02:36:22;;;;;;;55.60;33.97;;;;;;;;;;4991531;28;20229;-73
2022/01/25 02:38:47;;;;;;;53.63;33.90;;;;;;;;;;4977621;28;20599;-72
2022/01/25 02:41:13;;;;;;;52.40;33.57;;;;;;;;;;4959238;28;20228;-72
2022/01/25 02:43:39;;;;;;;52.97;33.20;;;;;;;;;;4992942;28;20304;-73
2022/01/25 02:49:03;;;;;;;52.17;32.33;;;;;;;;;;4992039;28;20233;-73
2022/01/25 02:51:31;;;;;;;49.40;30.27;;;;;;;;;;4988365;28;20226;-72
2022/01/25 02:53:57;;;;;;;55.97;33.27;;;;;;;;;;4940151;28;20226;-72
2022/01/25 02:56:23;;;;;;;55.10;33.10;;;;;;;;;;4974449;28;20232;-72
2022/01/25 02:58:51;;;;;;;52.10;32.70;;;;;;;;;;4944551;28;20241;-73
2022/01/25 03:01:17;;;;;;;53.63;33.03;;;;;;;;;;4991183;28;20603;-72
2022/01/25 03:03:45;;;;;;;51.80;32.10;;;;;;;;;;4991615;28;20228;-72
2022/01/25 03:06:17;;;;;;;52.20;32.67;;;;;;;;;;4959489;28;20233;-71
2022/01/25 03:08:47;;;;;;;51.47;32.13;;;;;;;;;;4976412;28;20225;-72
2022/01/25 03:11:17;;;;;;;51.50;31.37;;;;;;;;;;4975533;28;20320;-72
2022/01/25 03:13:52;;;;;;;50.23;32.57;;;;;;;;;;4971275;28;20225;-71
2022/01/25 03:16:43;;;;;;;52.30;31.97;;;;;;;;;;4956935;28;20264;-71
2022/01/25 03:19:31;;;;;;;52.73;32.53;;;;;;;;;;4990840;28;20622;-72
2022/01/25 03:21:57;;;;;;;52.83;32.50;;;;;;;;;;4978105;28;20217;-72
2022/01/25 03:24:22;;;;;;;53.53;33.40;;;;;;;;;;4975426;28;20656;-72
2022/01/25 03:26:47;;;;;;;54.10;32.23;;;;;;;;;;4975164;28;20228;-72
2022/01/25 03:29:15;;;;;;;51.10;33.23;;;;;;;;;;4991090;28;20233;-72
2022/01/25 03:31:41;;;;;;;56.07;34.63;;;;;;;;;;4958138;28;20275;-72
2022/01/25 03:34:11;;;;;;;56.10;34.47;;;;;;;;;;4978018;28;20229;-71
2022/01/25 03:36:36;;;;;;;55.47;34.67;;;;;;;;;;4971665;28;20700;-71
2022/01/25 03:39:10;;;;;;;57.33;35.23;;;;;;;;;;4971234;28;20305;-72
2022/01/25 03:41:39;;;;;;;56.43;35.03;;;;;;;;;;4956208;28;20225;-71
2022/01/25 03:44:04;;;;;;;60.07;34.60;;;;;;;;;;4973966;28;20609;-71
2022/01/25 03:47:18;;;;;;;57.97;34.50;;;;;;;;;;4992580;28;20222;-72
2022/01/25 03:52:12;;;;;;;59.40;36.10;;;;;;;;;;4972066;28;20226;-72
2022/01/25 03:54:38;;;;;;;61.77;34.90;;;;;;;;;;4958937;28;20307;-72
2022/01/25 03:57:03;;;;;;;59.53;36.73;;;;;;;;;;4941314;28;20276;-71
2022/01/25 03:59:33;;;;;;;56.47;34.63;;;;;;;;;;4988645;28;20304;-72
2022/01/25 04:01:59;;;;;;;57.60;36.50;;;;;;;;;;4991549;28;20236;-73
2022/01/25 04:04:29;;;;;;;63.60;37.43;;;;;;;;;;5006692;28;20699;-71
2022/01/25 04:06:54;;;;;;;64.23;37.07;;;;;;;;;;4990543;28;20640;-73
2022/01/25 04:09:21;;;;;;;60.77;35.20;;;;;;;;;;4986506;28;20272;-73
2022/01/25 04:11:47;;;;;;;62.00;37.17;;;;;;;;;;4954844;28;20242;-72
2022/01/25 04:14:17;;;;;;;57.17;35.50;;;;;;;;;;4955068;28;20710;-72
2022/01/25 04:16:57;;;;;;;60.90;37.17;;;;;;;;;;4991350;28;20320;-72
2022/01/25 04:19:37;;;;;;;65.20;37.90;;;;;;;;;;4959687;28;20297;-72
2022/01/25 04:24:55;;;;;;;58.67;37.03;;;;;;;;;;4991480;28;20217;-72
2022/01/25 04:27:24;;;;;;;56.90;36.17;;;;;;;;;;4976159;28;20829;-72
2022/01/25 04:29:52;;;;;;;59.77;37.63;;;;;;;;;;4971107;28;20280;-72
2022/01/25 04:32:32;;;;;;;58.93;37.23;;;;;;;;;;4971630;28;20249;-72
2022/01/25 04:35:13;;;;;;;58.07;36.20;;;;;;;;;;4992253;28;20300;-72
2022/01/25 04:48:57;;;;;;;55.90;34.93;;;;;;;;;;4992087;28;20229;-71
2022/01/25 04:51:48;;;;;;;56.97;35.43;;;;;;;;;;4989885;28;20217;-71
2022/01/25 04:54:29;;;;;;;58.50;35.83;;;;;;;;;;4990408;28;20217;-71
2022/01/25 05:00:01;;;;;;;59.37;37.30;;;;;;;;;;4990342;28;20735;-71
2022/01/25 05:05:01;;;;;;;61.60;38.43;;;;;;;;;;4962931;28;20244;-71
2022/01/25 05:07:41;;;;;;;59.73;37.23;;;;;;;;;;4999602;28;20286;-73
2022/01/25 05:10:08;;;;;;;58.20;36.20;;;;;;;;;;4951934;28;20972;-74
2022/01/25 05:12:51;;;;;;;57.40;36.93;;;;;;;;;;4991478;28;20304;-71
2022/01/25 05:15:24;;;;;;;53.60;36.43;;;;;;;;;;4976594;28;20230;-71
2022/01/25 05:18:09;;;;;;;56.53;37.23;;;;;;;;;;4989818;28;20265;-72
2022/01/25 05:23:23;;;;;;;61.27;37.50;;;;;;;;;;4994448;28;20229;-73
2022/01/25 05:25:48;;;;;;;56.47;37.27;;;;;;;;;;4994775;28;20842;-72
2022/01/25 05:28:14;;;;;;;62.30;39.10;;;;;;;;;;4977107;28;20751;-72
2022/01/25 05:30:44;;;;;;;57.07;37.10;;;;;;;;;;4993320;28;20229;-73
2022/01/25 05:33:10;;;;;;;58.53;37.90;;;;;;;;;;4991360;28;20614;-72
2022/01/25 05:35:35;;;;;;;57.47;37.53;;;;;;;;;;4993805;28;20228;-72
2022/01/25 05:38:01;;;;;;;59.03;39.07;;;;;;;;;;4977203;28;20774;-73
2022/01/25 05:41:08;;;;;;;58.73;39.13;;;;;;;;;;4976853;28;20260;-72
2022/01/25 05:48:29;;;;;;;56.23;37.93;;;;;;;;;;4965458;28;20240;-72
2022/01/25 05:50:57;;;;;;;59.00;38.03;;;;;;;;;;4993510;28;20214;-73
2022/01/25 05:53:22;;;;;;;58.80;39.30;;;;;;;;;;4993821;28;20236;-73
2022/01/25 05:55:50;;;;;;;57.47;38.57;;;;;;;;;;4977297;28;20218;-72
2022/01/25 05:58:19;;;;;;;59.10;38.37;;;;;;;;;;4976693;28;20245;-73
2022/01/25 06:00:49;;;;;;;57.20;35.83;;;;;;;;;;4994047;28;20236;-72
2022/01/25 06:03:14;;;;;;;59.07;39.17;;;;;;;;;;4976995;28;20229;-71
2022/01/25 06:05:44;;;;;;;55.73;38.40;;;;;;;;;;4977129;28;20335;-73
2022/01/25 06:08:13;;;;;;;57.10;38.10;;;;;;;;;;4975735;28;20719;-71
2022/01/25 06:10:41;;;;;;;57.50;37.90;;;;;;;;;;5009068;28;20217;-72
2022/01/25 06:13:07;;;;;;;60.07;38.83;;;;;;;;;;4976041;28;20264;-72
2022/01/25 06:15:32;;;;;;;58.83;39.03;;;;;;;;;;4948682;28;20240;-73
2022/01/25 06:18:01;;;;;;;59.63;39.17;;;;;;;;;;4958252;28;20720;-73
2022/01/25 06:20:28;;;;;;;58.77;38.93;;;;;;;;;;4977133;28;20416;-72
2022/01/25 06:22:54;;;;;;;58.60;38.67;;;;;;;;;;4988362;28;20221;-72
2022/01/25 06:25:22;;;;;;;57.80;39.13;;;;;;;;;;4992723;28;20256;-72
2022/01/25 06:27:50;;;;;;;59.50;38.43;;;;;;;;;;4992480;28;20230;-72
2022/01/25 06:30:17;;;;;;;58.57;39.43;;;;;;;;;;4990862;28;20234;-72
2022/01/25 06:32:46;;;;;;;59.77;38.63;;;;;;;;;;4976064;28;20217;-72
2022/01/25 06:35:13;;;;;;;60.47;38.00;;;;;;;;;;4992347;28;20258;-73
2022/01/25 06:37:39;;;;;;;57.50;37.33;;;;;;;;;;4976321;28;20233;-72
2022/01/25 06:40:07;;;;;;;58.57;38.97;;;;;;;;;;4992241;28;20650;-72
2022/01/25 06:42:38;;;;;;;59.60;39.50;;;;;;;;;;4992217;28;20307;-72
2022/01/25 06:45:09;;;;;;;59.47;39.30;;;;;;;;;;4992092;28;20225;-72
2022/01/25 06:47:34;;;;;;;59.97;39.27;;;;;;;;;;4976198;28;20225;-72
2022/01/25 06:50:02;;;;;;;57.20;38.90;;;;;;;;;;4976267;28;20703;-72
2022/01/25 06:52:31;;;;;;;59.37;38.53;;;;;;;;;;4991861;28;20276;-73
2022/01/25 06:54:56;;;;;;;56.83;38.00;;;;;;;;;;4977048;28;20280;-73
2022/01/25 06:57:22;;;;;;;60.07;39.03;;;;;;;;;;4992163;28;20229;-72
2022/01/25 06:59:47;;;;;;;55.90;37.70;;;;;;;;;;4992165;28;20710;-72
2022/01/25 07:02:15;;;;;;;56.60;38.43;;;;;;;;;;4971687;28;20222;-72
2022/01/25 07:04:41;;;;;;;55.17;38.10;;;;;;;;;;4956840;28;20241;-73
2022/01/25 07:07:07;;;;;;;60.23;39.47;;;;;;;;;;4953441;28;20230;-74
2022/01/25 07:09:35;;;;;;;56.70;38.87;;;;;;;;;;4973068;28;20230;-73
2022/01/25 07:12:04;;;;;;;61.10;39.63;;;;;;;;;;4987181;28;20646;-72
2022/01/25 07:14:29;;;;;;;58.33;39.43;;;;;;;;;;4992975;28;20300;-73
2022/01/25 07:16:55;;;;;;;58.90;37.40;;;;;;;;;;4975131;28;20625;-72
2022/01/25 07:19:24;;;;;;;56.93;38.00;;;;;;;;;;4974959;28;20236;-73
2022/01/25 07:21:52;;;;;;;60.07;39.57;;;;;;;;;;4991815;28;20224;-73
2022/01/25 07:24:18;;;;;;;62.23;37.93;;;;;;;;;;4992460;28;20225;-73
2022/01/25 07:26:47;;;;;;;58.30;39.13;;;;;;;;;;4977803;28;20221;-71
2022/01/25 07:29:13;;;;;;;63.57;39.83;;;;;;;;;;4977210;28;20709;-73
2022/01/25 07:31:39;;;;;;;60.07;39.10;;;;;;;;;;4985616;28;20274;-73
2022/01/25 07:34:07;;;;;;;58.87;37.57;;;;;;;;;;4973956;28;20712;-73
2022/01/25 07:36:37;;;;;;;63.53;39.43;;;;;;;;;;4964680;28;20217;-71
2022/01/25 07:39:03;;;;;;;57.50;38.37;;;;;;;;;;5000389;28;20229;-72
2022/01/25 07:41:29;;;;;;;60.77;40.47;;;;;;;;;;4973236;28;20228;-71
2022/01/25 07:43:55;;;;;;;53.93;36.87;;;;;;;;;;4973800;28;20770;-73
2022/01/25 07:46:24;;;;;;;58.30;37.53;;;;;;;;;;5007277;28;20970;-72
2022/01/25 07:48:50;;;;;;;58.13;37.67;;;;;;;;;;4991035;28;20230;-70
2022/01/25 07:51:16;;;;;;;58.03;39.10;;;;;;;;;;4988932;28;20229;-74
2022/01/25 07:53:43;;;;;;;56.97;38.50;;;;;;;;;;4991397;28;20225;-72
2022/01/25 07:56:10;;;;;;;55.70;37.97;;;;;;;;;;4966113;28;20247;-72
2022/01/25 07:58:38;;;;;;;57.67;37.33;;;;;;;;;;4944945;28;20228;-73
2022/01/25 08:01:04;;;;;;;58.57;37.43;;;;;;;;;;4943152;28;20248;-72
2022/01/25 08:03:35;;;;;;;58.00;38.47;;;;;;;;;;4963656;28;20238;-70
2022/01/25 08:06:03;;;;;;;55.87;38.20;;;;;;;;;;4957133;28;20293;-73
2022/01/25 08:08:33;;;;;;;56.63;37.43;;;;;;;;;;4991172;28;20230;-72
2022/01/25 08:10:59;;;;;;;57.43;38.17;;;;;;;;;;4994370;28;20226;-72
2022/01/25 08:13:25;;;;;;;59.10;37.73;;;;;;;;;;5009315;28;20717;-74
2022/01/25 08:15:50;;;;;;;57.00;38.43;;;;;;;;;;4990268;28;20293;-74
2022/01/25 08:18:16;;;;;;;55.57;37.43;;;;;;;;;;5006207;28;20237;-74
2022/01/25 08:20:42;;;;;;;58.60;38.60;;;;;;;;;;4949315;28;20249;-72
2022/01/25 08:23:12;;;;;;;60.43;40.00;;;;;;;;;;4984218;28;20230;-72
2022/01/25 08:25:38;;;;;;;60.07;39.20;;;;;;;;;;4987152;28;20220;-73
2022/01/25 08:28:08;;;;;;;60.20;40.23;;;;;;;;;;4983060;28;20715;-72
2022/01/25 08:30:34;;;;;;;58.07;38.70;;;;;;;;;;4979690;28;20225;-70
2022/01/25 08:33:05;;;;;;;57.67;39.37;;;;;;;;;;4983455;28;20229;-72
2022/01/25 08:35:31;;;;;;;62.20;39.43;;;;;;;;;;4978824;28;20218;-71
2022/01/25 08:37:59;;;;;;;59.90;38.60;;;;;;;;;;4966996;28;20229;-71
2022/01/25 08:40:26;;;;;;;58.37;38.30;;;;;;;;;;4991204;28;20786;-72
2022/01/25 08:42:51;;;;;;;56.87;38.03;;;;;;;;;;4993134;28;20214;-71
2022/01/25 08:45:20;;;;;;;64.73;40.27;;;;;;;;;;4986071;28;20226;-71
2022/01/25 08:47:53;;;;;;;60.13;39.67;;;;;;;;;;4991609;28;20225;-71
2022/01/25 08:50:19;;;;;;;61.33;37.80;;;;;;;;;;4971626;28;20257;-71
2022/01/25 08:52:45;;;;;;;58.30;37.77;;;;;;;;;;4983077;28;20241;-71
2022/01/25 08:55:11;;;;;;;59.40;37.87;;;;;;;;;;5025039;28;20232;-72
2022/01/25 08:57:39;;;;;;;63.07;41.10;;;;;;;;;;4991061;28;20287;-71
2022/01/25 09:00:08;;;;;;;61.73;39.87;;;;;;;;;;4994696;28;20226;-72
2022/01/25 09:02:36;;;;;;;63.23;40.20;;;;;;;;;;4968510;28;20248;-72
2022/01/25 09:05:03;;;;;;;63.50;38.83;;;;;;;;;;4991258;28;20222;-72
2022/01/25 09:07:33;;;;;;;62.47;39.63;;;;;;;;;;4960312;28;20225;-72
2022/01/25 09:10:01;;;;;;;63.13;39.50;;;;;;;;;;4962058;28;20229;-72
2022/01/25 09:12:27;;;;;;;61.63;39.37;;;;;;;;;;4972031;28;20572;-72
2022/01/25 09:14:53;;;;;;;70.27;41.97;;;;;;;;;;4993019;28;20695;-73
2022/01/25 09:17:19;;;;;;;69.33;41.30;;;;;;;;;;4990905;28;20229;-72
2022/01/25 09:19:47;;;;;;;68.63;41.10;;;;;;;;;;4969775;28;20225;-73
2022/01/25 09:22:13;;;;;;;66.70;40.00;;;;;;;;;;4961210;28;20300;-73
2022/01/25 09:24:38;;;;;;;63.87;39.40;;;;;;;;;;4960438;28;20288;-73
2022/01/25 09:27:05;;;;;;;65.60;40.00;;;;;;;;;;4968077;28;20238;-72
2022/01/25 09:29:31;;;;;;;67.30;40.47;;;;;;;;;;4950017;28;20229;-71
2022/01/25 09:32:00;;;;;;;62.93;39.57;;;;;;;;;;4977384;28;20252;-72
2022/01/25 09:34:27;;;;;;;61.47;39.53;;;;;;;;;;4958886;28;20272;-72
2022/01/25 09:36:53;;;;;;;60.17;37.20;;;;;;;;;;4966708;28;20233;-73
2022/01/25 09:39:19;;;;;;;58.73;37.17;;;;;;;;;;4983293;28;20222;-72
2022/01/25 09:41:45;;;;;;;60.73;38.10;;;;;;;;;;4973894;28;20309;-73
2022/01/25 09:44:11;;;;;;;63.47;38.70;;;;;;;;;;4942131;28;20222;-73
2022/01/25 09:46:43;;;;;;;60.73;37.47;;;;;;;;;;4942367;28;20305;-73
2022/01/25 09:49:12;;;;;;;67.03;38.60;;;;;;;;;;4984989;28;20611;-73
2022/01/25 09:51:41;;;;;;;65.53;38.67;;;;;;;;;;4996046;28;20317;-72
2022/01/25 09:54:08;;;;;;;66.53;40.03;;;;;;;;;;4993701;28;20312;-71
2022/01/25 09:56:36;;;;;;;61.27;38.60;;;;;;;;;;4950910;28;20237;-73
2022/01/25 09:59:05;;;;;;;62.13;38.03;;;;;;;;;;4992567;28;20307;-72
2022/01/25 10:01:31;;;;;;;60.87;37.97;;;;;;;;;;5016282;28;20223;-73
2022/01/25 10:03:58;;;;;;;61.77;39.03;;;;;;;;;;4970691;28;20315;-72
2022/01/25 10:06:25;;;;;;;59.97;36.90;;;;;;;;;;4966036;28;20256;-77
2022/01/25 10:08:52;;;;;;;58.63;37.93;;;;;;;;;;4963255;28;20221;-71
2022/01/25 10:11:23;;;;;;;57.70;36.87;;;;;;;;;;4962323;28;20786;-72
2022/01/25 10:13:51;;;;;;;56.87;36.83;;;;;;;;;;4976929;28;20747;-72
2022/01/25 10:16:35;;;;;;;60.60;37.27;;;;;;;;;;4970721;28;20234;-73
2022/01/25 10:19:07;;;;;;;59.73;36.60;;;;;;;;;;4965667;28;20218;-73
2022/01/25 10:21:39;;;;;;;63.33;36.27;;;;;;;;;;4987597;28;20303;-72
2022/01/25 10:24:21;;;;;;;56.93;35.73;;;;;;;;;;5005563;28;20765;-71
2022/01/25 10:26:54;;;;;;;57.57;36.60;;;;;;;;;;5008617;28;20596;-72
2022/01/25 10:29:20;;;;;;;60.57;37.63;;;;;;;;;;5004275;28;20225;-73
2022/01/25 10:31:48;;;;;;;59.83;36.43;;;;;;;;;;4976565;28;20240;-72
2022/01/25 10:34:20;;;;;;;58.00;36.00;;;;;;;;;;4948508;28;20592;-72
2022/01/25 10:36:49;;;;;;;58.47;36.50;;;;;;;;;;4972487;28;20257;-74
2022/01/25 10:39:25;;;;;;;55.97;35.87;;;;;;;;;;4982678;28;20221;-73
2022/01/25 10:42:10;;;;;;;56.37;36.33;;;;;;;;;;4984803;28;20214;-72
2022/01/25 10:44:54;;;;;;;54.43;35.40;;;;;;;;;;4966644;28;20282;-71
2022/01/25 10:47:46;;;;;;;48.70;31.60;;;;;;;;;;4970473;28;20613;-72
2022/01/25 10:50:18;;;;;;;50.67;31.20;;;;;;;;;;4979820;28;20319;-72
2022/01/25 10:52:47;;;;;;;50.80;31.50;;;;;;;;;;4992881;28;20246;-72
2022/01/25 10:55:14;;;;;;;53.53;31.37;;;;;;;;;;4978268;28;20225;-73
2022/01/25 10:57:39;;;;;;;53.07;32.30;;;;;;;;;;4993877;28;20324;-72
2022/01/25 11:00:10;;;;;;;51.70;31.83;;;;;;;;;;4966541;28;20221;-72
2022/01/25 11:02:48;;;;;;;48.57;31.03;;;;;;;;;;4978923;28;20224;-73
2022/01/25 11:05:17;;;;;;;47.53;30.67;;;;;;;;;;4955621;28;20347;-74
2022/01/25 11:07:46;;;;;;;52.50;32.07;;;;;;;;;;4943657;28;20232;-73
2022/01/25 11:10:19;;;;;;;52.17;31.37;;;;;;;;;;4971107;28;20305;-74
2022/01/25 11:13:02;;;;;;;51.53;31.87;;;;;;;;;;4973058;28;20213;-73
2022/01/25 11:15:37;;;;;;;47.37;30.07;;;;;;;;;;4973174;28;20229;-73
2022/01/25 11:18:07;;;;;;;50.43;31.60;;;;;;;;;;5003776;28;20231;-72
2022/01/25 11:20:33;;;;;;;49.70;30.87;;;;;;;;;;4984672;28;20221;-73
2022/01/25 11:22:59;;;;;;;51.83;32.60;;;;;;;;;;4991913;28;20730;-73
2022/01/25 11:25:25;;;;;;;48.17;30.40;;;;;;;;;;4978586;28;20229;-73
2022/01/25 11:27:50;;;;;;;46.93;29.40;;;;;;;;;;4995223;28;20224;-72
2022/01/25 11:30:18;;;;;;;43.17;28.20;;;;;;;;;;4963871;28;20234;-73
2022/01/25 11:32:45;;;;;;;46.63;28.47;;;;;;;;;;4985189;28;20226;-73
2022/01/25 11:35:13;;;;;;;43.23;27.20;;;;;;;;;;4957085;28;20217;-74
2022/01/25 11:37:42;;;;;;;42.40;26.23;;;;;;;;;;4959234;28;20255;-73
2022/01/25 11:40:38;;;;;;;46.63;28.47;;;;;;;;;;4958831;28;20229;-73
2022/01/25 11:43:13;;;;;;;41.37;26.20;;;;;;;;;;4968209;28;20231;-74
2022/01/25 11:45:43;;;;;;;47.33;27.40;;;;;;;;;;4963361;28;20237;-72
2022/01/25 11:48:09;;;;;;;41.40;26.27;;;;;;;;;;4959230;28;20226;-73
2022/01/25 11:50:37;;;;;;;43.20;25.43;;;;;;;;;;4972225;28;20222;-73
2022/01/25 11:53:07;;;;;;;47.47;27.10;;;;;;;;;;4938865;28;20222;-72
2022/01/25 11:55:38;;;;;;;47.67;26.37;;;;;;;;;;4972063;28;20232;-73
2022/01/25 11:58:13;;;;;;;48.37;26.13;;;;;;;;;;4972623;28;20280;-73
2022/01/25 12:00:50;;;;;;;49.07;26.70;;;;;;;;;;4978513;28;20217;-72
2022/01/25 12:03:20;;;;;;;48.37;26.60;;;;;;;;;;4974298;28;20786;-73
2022/01/25 12:06:07;;;;;;;49.00;27.73;;;;;;;;;;4958617;28;20226;-73
2022/01/25 12:08:55;;;;;;;48.07;26.53;;;;;;;;;;4957281;28;20237;-73
2022/01/25 12:11:53;;;;;;;59.33;27.67;;;;;;;;;;4981170;28;20225;-73
2022/01/25 12:14:23;;;;;;;39.33;25.13;;;;;;;;;;4960359;28;20293;-73
2022/01/25 12:16:55;;;;;;;37.23;23.37;;;;;;;;;;4962399;28;20223;-73
2022/01/25 12:19:50;;;;;;;35.97;25.57;;;;;;;;;;4939085;28;20229;-73
2022/01/25 12:27:41;;;;;;;35.90;23.17;;;;;;;;;;4990221;28;20308;-73
2022/01/25 12:30:21;;;;;;;31.23;21.37;;;;;;;;;;4989914;28;20611;-73
2022/01/25 12:32:55;;;;;;;33.77;21.87;;;;;;;;;;4988378;28;20245;-73
2022/01/25 12:35:47;;;;;;;31.70;21.07;;;;;;;;;;4965662;28;20221;-71
2022/01/25 12:38:15;;;;;;;35.20;21.07;;;;;;;;;;4970424;28;20230;-73
2022/01/25 12:41:31;;;;;;;33.60;21.10;;;;;;;;;;4975254;28;20222;-73
2022/01/25 12:44:04;;;;;;;31.00;18.83;;;;;;;;;;4970450;28;20229;-73
2022/01/25 12:46:34;;;;;;;29.50;20.20;;;;;;;;;;4957693;28;20224;-73
2022/01/25 12:49:04;;;;;;;34.80;21.37;;;;;;;;;;4959090;28;20368;-73
2022/01/25 12:51:34;;;;;;;33.90;20.67;;;;;;;;;;4973312;28;20225;-72
2022/01/25 12:54:04;;;;;;;32.10;20.83;;;;;;;;;;4942786;28;20233;-72
2022/01/25 12:56:34;;;;;;;30.90;20.40;;;;;;;;;;4958963;28;20232;-72
2022/01/25 12:59:11;;;;;;;30.50;20.33;;;;;;;;;;4956089;28;20214;-75
2022/01/25 13:01:38;;;;;;;31.77;19.37;;;;;;;;;;4972721;28;20220;-72
2022/01/25 13:04:10;;;;;;;28.97;19.13;;;;;;;;;;4976462;28;20236;-73
2022/01/25 13:06:38;;;;;;;30.10;19.40;;;;;;;;;;4960601;28;20279;-72
2022/01/25 13:09:14;;;;;;;28.33;18.43;;;;;;;;;;4973960;28;20241;-72
2022/01/25 13:16:52;;;;;;;27.13;18.33;;;;;;;;;;4971834;28;20214;-72
2022/01/25 13:19:25;;;;;;;28.17;17.83;;;;;;;;;;4971033;28;20645;-73
2022/01/25 13:22:03;;;;;;;29.07;18.67;;;;;;;;;;4968225;28;20222;-73
2022/01/25 13:24:32;;;;;;;29.73;19.33;;;;;;;;;;4967846;28;20335;-74
2022/01/25 13:27:01;;;;;;;28.73;18.60;;;;;;;;;;4990529;28;20654;-72
2022/01/25 13:32:28;;;;;;;32.43;18.80;;;;;;;;;;4960967;28;20253;-73
2022/01/25 13:35:13;;;;;;;29.80;19.23;;;;;;;;;;4972995;28;20213;-72
2022/01/25 13:37:39;;;;;;;31.03;20.00;;;;;;;;;;4950054;28;20226;-73
2022/01/25 13:40:09;;;;;;;29.13;18.73;;;;;;;;;;4972025;28;20237;-73
2022/01/25 13:48:08;;;;;;;29.23;18.63;;;;;;;;;;4967095;28;20226;-73
2022/01/25 13:50:35;;;;;;;28.20;18.57;;;;;;;;;;4976301;28;20247;-74
2022/01/25 13:53:00;;;;;;;28.63;17.73;;;;;;;;;;4964855;28;20668;-73
2022/01/25 13:55:27;;;;;;;27.60;18.53;;;;;;;;;;4957314;28;20253;-73
2022/01/25 13:57:55;;;;;;;26.10;18.37;;;;;;;;;;4982164;28;20244;-73
2022/01/25 14:00:24;;;;;;;28.10;18.37;;;;;;;;;;4945846;28;20292;-73
2022/01/25 14:02:54;;;;;;;30.00;18.07;;;;;;;;;;4961467;28;20268;-73
2022/01/25 14:05:20;;;;;;;29.87;18.20;;;;;;;;;;4992090;28;20723;-72
2022/01/25 14:07:54;;;;;;;28.03;19.43;;;;;;;;;;4993943;28;20221;-72
2022/01/25 14:10:26;;;;;;;29.10;18.37;;;;;;;;;;4973466;28;20239;-73
2022/01/25 14:24:07;;;;;;;30.00;19.03;;;;;;;;;;4979748;28;20252;-73
2022/01/25 14:26:34;;;;;;;30.73;19.33;;;;;;;;;;4979330;28;20287;-74
2022/01/25 14:29:12;;;;;;;30.60;19.10;;;;;;;;;;4966104;28;20241;-73
2022/01/25 14:31:42;;;;;;;30.63;17.90;;;;;;;;;;4957923;28;20220;-73
2022/01/25 14:34:16;;;;;;;24.97;16.07;;;;;;;;;;4977703;28;20217;-73
2022/01/25 14:36:48;;;;;;;23.57;15.93;;;;;;;;;;4960761;28;20225;-73
2022/01/25 14:39:17;;;;;;;27.10;16.33;;;;;;;;;;4977794;28;20725;-73
2022/01/25 14:41:45;;;;;;;25.40;16.20;;;;;;;;;;4942683;28;20226;-74
2022/01/25 14:44:13;;;;;;;28.33;17.13;;;;;;;;;;4960296;28;20324;-74
2022/01/25 14:46:52;;;;;;;24.00;16.33;;;;;;;;;;4976353;28;20217;-73
2022/01/25 14:49:29;;;;;;;26.50;16.77;;;;;;;;;;4955970;28;20370;-74
2022/01/25 14:52:05;;;;;;;25.90;16.93;;;;;;;;;;4973745;28;20218;-73
2022/01/25 14:54:32;;;;;;;26.27;17.20;;;;;;;;;;4986164;28;20614;-74
2022/01/25 14:57:05;;;;;;;26.13;15.77;;;;;;;;;;4991969;28;20279;-73
2022/01/25 14:59:32;;;;;;;29.40;17.13;;;;;;;;;;4975267;28;20229;-73
2022/01/25 15:02:09;;;;;;;28.90;17.23;;;;;;;;;;4975854;28;20300;-72
2022/01/25 15:04:37;;;;;;;28.43;18.10;;;;;;;;;;4956101;28;20256;-73
2022/01/25 15:07:07;;;;;;;30.57;17.07;;;;;;;;;;4953698;28;20231;-72
2022/01/25 15:09:33;;;;;;;26.67;17.30;;;;;;;;;;4966152;28;20245;-73
2022/01/25 15:12:01;;;;;;;32.57;18.60;;;;;;;;;;4974488;28;20218;-73
2022/01/25 15:14:38;;;;;;;29.27;18.50;;;;;;;;;;4965065;28;20248;-73
2022/01/25 15:17:07;;;;;;;33.83;20.33;;;;;;;;;;4977771;28;20235;-73
2022/01/25 15:19:33;;;;;;;34.90;20.03;;;;;;;;;;4981148;28;20234;-73
2022/01/25 15:22:02;;;;;;;32.40;19.07;;;;;;;;;;4971620;28;20355;-73
2022/01/25 15:24:30;;;;;;;27.10;18.57;;;;;;;;;;5001008;28;20224;-73
2022/01/25 15:27:01;;;;;;;31.23;18.60;;;;;;;;;;4975010;28;20229;-72
2022/01/25 15:29:27;;;;;;;31.63;19.53;;;;;;;;;;4966831;28;20252;-73
2022/01/25 15:31:58;;;;;;;32.77;18.07;;;;;;;;;;4980228;28;20225;-73
2022/01/25 15:34:27;;;;;;;34.83;20.47;;;;;;;;;;4978628;28;20227;-73
2022/01/25 15:36:53;;;;;;;31.47;20.07;;;;;;;;;;5008331;28;20292;-73
2022/01/25 15:39:20;;;;;;;34.67;20.30;;;;;;;;;;4989889;28;20259;-73
2022/01/25 15:41:48;;;;;;;31.47;20.07;;;;;;;;;;4975434;28;20405;-72
2022/01/25 15:44:15;;;;;;;34.73;21.60;;;;;;;;;;4957641;28;20221;-73
2022/01/25 15:49:18;;;;;;;35.63;21.50;;;;;;;;;;4961492;28;20705;-72
2022/01/25 15:51:45;;;;;;;33.13;20.20;;;;;;;;;;4963701;28;20222;-73
2022/01/25 15:54:13;;;;;;;38.10;21.70;;;;;;;;;;4987917;28;20224;-73
2022/01/25 15:56:38;;;;;;;33.73;20.60;;;;;;;;;;4975202;28;20225;-75
2022/01/25 15:59:04;;;;;;;35.93;21.63;;;;;;;;;;4958598;28;20661;-74
2022/01/25 16:01:31;;;;;;;34.93;21.60;;;;;;;;;;4990686;28;20223;-73
2022/01/25 16:03:58;;;;;;;37.27;21.77;;;;;;;;;;4975934;28;20225;-73
2022/01/25 16:06:27;;;;;;;35.27;21.27;;;;;;;;;;4944304;28;20218;-73
2022/01/25 16:08:56;;;;;;;36.53;21.83;;;;;;;;;;5006469;28;20243;-73
2022/01/25 16:11:23;;;;;;;34.00;21.13;;;;;;;;;;4962897;28;20218;-72
2022/01/25 16:13:51;;;;;;;34.87;21.27;;;;;;;;;;4987991;28;20238;-72
2022/01/25 16:16:17;;;;;;;36.67;22.40;;;;;;;;;;5001702;28;20378;-73
2022/01/25 16:18:51;;;;;;;38.80;22.17;;;;;;;;;;4977679;28;20723;-73
2022/01/25 16:21:19;;;;;;;34.73;21.20;;;;;;;;;;4995914;28;20228;-73
2022/01/25 16:23:44;;;;;;;37.60;21.20;;;;;;;;;;4986233;28;20228;-73
2022/01/25 16:26:17;;;;;;;39.17;22.50;;;;;;;;;;4962333;28;20232;-73
2022/01/25 16:28:48;;;;;;;38.03;23.00;;;;;;;;;;4986874;28;20227;-74
2022/01/25 16:31:31;;;;;;;43.70;22.90;;;;;;;;;;4958662;28;20229;-72
2022/01/25 16:33:57;;;;;;;44.70;23.53;;;;;;;;;;4977089;28;20228;-72
2022/01/25 16:36:23;;;;;;;42.03;24.50;;;;;;;;;;4993518;28;20279;-72
2022/01/25 16:38:49;;;;;;;39.63;23.10;;;;;;;;;;4994071;28;20212;-72